sensor_id;sensor_type;location;lat;lon;timestamp;P1;durP1;ratioP1;P2;durP2;ratioP2
42670;SDS011;28283;55.426;37.756;2022-12-18T00:03:32;12.90;;;9.32;;
42670;SDS011;28283;55.426;37.756;2022-12-18T00:08:34;13.70;;;8.93;;
42670;SDS011;28283;55.426;37.756;2022-12-18T00:13:35;12.88;;;8.15;;
42670;SDS011;28283;55.426;37.756;2022-12-18T00:18:36;15.60;;;10.20;;
42670;SDS011;28283;55.426;37.756;2022-12-18T00:23:37;14.77;;;8.20;;
42670;SDS011;28283;55.426;37.756;2022-12-18T00:28:39;13.23;;;8.48;;
42670;SDS011;28283;55.426;37.756;2022-12-18T00:33:40;12.00;;;8.18;;
42670;SDS011;28283;55.426;37.756;2022-12-18T00:38:41;10.48;;;8.20;;
42670;SDS011;28283;55.426;37.756;2022-12-18T00:43:42;13.35;;;7.97;;
42670;SDS011;28283;55.426;37.756;2022-12-18T00:48:43;9.20;;;7.65;;
42670;SDS011;28283;55.426;37.756;2022-12-18T00:53:43;11.25;;;7.95;;
42670;SDS011;28283;55.426;37.756;2022-12-18T00:58:44;9.43;;;6.47;;
42670;SDS011;28283;55.426;37.756;2022-12-18T01:08:46;12.32;;;7.88;;
42670;SDS011;28283;55.426;37.756;2022-12-18T01:13:47;11.73;;;8.13;;
42670;SDS011;28283;55.426;37.756;2022-12-18T01:23:51;11.63;;;7.22;;
42670;SDS011;28283;55.426;37.756;2022-12-18T01:28:56;8.65;;;5.72;;
42670;SDS011;28283;55.426;37.756;2022-12-18T01:33:57;11.00;;;7.65;;
42670;SDS011;28283;55.426;37.756;2022-12-18T01:39:01;9.95;;;6.68;;
42670;SDS011;28283;55.426;37.756;2022-12-18T01:44:46;10.32;;;7.07;;
42670;SDS011;28283;55.426;37.756;2022-12-18T01:49:44;10.25;;;6.10;;
42670;SDS011;28283;55.426;37.756;2022-12-18T01:54:46;10.70;;;6.97;;
42670;SDS011;28283;55.426;37.756;2022-12-18T01:59:49;9.38;;;6.57;;
42670;SDS011;28283;55.426;37.756;2022-12-18T02:04:53;9.50;;;7.00;;
42670;SDS011;28283;55.426;37.756;2022-12-18T02:09:59;7.78;;;6.40;;
42670;SDS011;28283;55.426;37.756;2022-12-18T02:15:09;9.65;;;6.88;;
42670;SDS011;28283;55.426;37.756;2022-12-18T02:20:24;12.75;;;7.88;;
42670;SDS011;28283;55.426;37.756;2022-12-18T02:31:15;10.77;;;8.40;;
42670;SDS011;28283;55.426;37.756;2022-12-18T02:36:22;11.18;;;8.18;;
42670;SDS011;28283;55.426;37.756;2022-12-18T02:41:23;12.65;;;8.65;;
42670;SDS011;28283;55.426;37.756;2022-12-18T02:46:39;8.57;;;7.50;;
42670;SDS011;28283;55.426;37.756;2022-12-18T02:56:55;12.43;;;7.75;;
42670;SDS011;28283;55.426;37.756;2022-12-18T03:07:33;9.50;;;6.63;;
42670;SDS011;28283;55.426;37.756;2022-12-18T03:12:40;8.75;;;6.43;;
42670;SDS011;28283;55.426;37.756;2022-12-18T03:17:52;9.43;;;6.25;;
42670;SDS011;28283;55.426;37.756;2022-12-18T03:22:59;8.88;;;5.97;;
42670;SDS011;28283;55.426;37.756;2022-12-18T03:28:07;6.25;;;5.05;;
42670;SDS011;28283;55.426;37.756;2022-12-18T03:38:13;7.93;;;6.28;;
42670;SDS011;28283;55.426;37.756;2022-12-18T03:48:52;12.07;;;6.63;;
42670;SDS011;28283;55.426;37.756;2022-12-18T03:54:05;9.10;;;6.22;;
42670;SDS011;28283;55.426;37.756;2022-12-18T03:59:08;7.72;;;5.63;;
42670;SDS011;28283;55.426;37.756;2022-12-18T04:04:11;7.18;;;5.22;;
42670;SDS011;28283;55.426;37.756;2022-12-18T04:09:13;7.60;;;5.88;;
42670;SDS011;28283;55.426;37.756;2022-12-18T04:14:15;7.57;;;5.97;;
42670;SDS011;28283;55.426;37.756;2022-12-18T04:19:15;7.40;;;5.18;;
42670;SDS011;28283;55.426;37.756;2022-12-18T04:24:16;6.43;;;5.40;;
42670;SDS011;28283;55.426;37.756;2022-12-18T04:29:17;7.90;;;5.82;;
42670;SDS011;28283;55.426;37.756;2022-12-18T04:34:17;10.23;;;6.32;;
42670;SDS011;28283;55.426;37.756;2022-12-18T04:39:18;8.60;;;5.53;;
42670;SDS011;28283;55.426;37.756;2022-12-18T04:44:19;9.05;;;5.82;;
42670;SDS011;28283;55.426;37.756;2022-12-18T04:49:19;11.52;;;6.43;;
42670;SDS011;28283;55.426;37.756;2022-12-18T04:54:20;8.63;;;6.10;;
42670;SDS011;28283;55.426;37.756;2022-12-18T04:59:20;10.13;;;6.03;;
42670;SDS011;28283;55.426;37.756;2022-12-18T05:04:21;9.65;;;6.15;;
42670;SDS011;28283;55.426;37.756;2022-12-18T05:09:22;10.48;;;6.97;;
42670;SDS011;28283;55.426;37.756;2022-12-18T05:14:23;10.23;;;6.32;;
42670;SDS011;28283;55.426;37.756;2022-12-18T05:19:24;9.90;;;6.00;;
42670;SDS011;28283;55.426;37.756;2022-12-18T05:24:25;7.82;;;5.97;;
42670;SDS011;28283;55.426;37.756;2022-12-18T05:29:26;9.45;;;5.93;;
42670;SDS011;28283;55.426;37.756;2022-12-18T05:34:26;10.18;;;6.90;;
42670;SDS011;28283;55.426;37.756;2022-12-18T05:39:27;7.53;;;6.15;;
42670;SDS011;28283;55.426;37.756;2022-12-18T05:44:28;6.60;;;5.30;;
42670;SDS011;28283;55.426;37.756;2022-12-18T05:49:28;8.90;;;6.35;;
42670;SDS011;28283;55.426;37.756;2022-12-18T05:54:29;5.18;;;3.75;;
42670;SDS011;28283;55.426;37.756;2022-12-18T05:59:29;8.05;;;5.60;;
42670;SDS011;28283;55.426;37.756;2022-12-18T06:04:30;8.13;;;5.88;;
42670;SDS011;28283;55.426;37.756;2022-12-18T06:09:31;8.30;;;4.75;;
42670;SDS011;28283;55.426;37.756;2022-12-18T06:14:32;8.25;;;5.88;;
42670;SDS011;28283;55.426;37.756;2022-12-18T06:19:33;9.68;;;6.05;;
42670;SDS011;28283;55.426;37.756;2022-12-18T06:24:33;8.95;;;5.85;;
42670;SDS011;28283;55.426;37.756;2022-12-18T06:29:34;7.50;;;5.88;;
42670;SDS011;28283;55.426;37.756;2022-12-18T06:34:36;8.98;;;6.13;;
42670;SDS011;28283;55.426;37.756;2022-12-18T06:39:37;8.63;;;5.57;;
42670;SDS011;28283;55.426;37.756;2022-12-18T06:44:38;8.63;;;5.60;;
42670;SDS011;28283;55.426;37.756;2022-12-18T06:49:39;8.48;;;6.25;;
42670;SDS011;28283;55.426;37.756;2022-12-18T06:54:39;6.75;;;5.78;;
42670;SDS011;28283;55.426;37.756;2022-12-18T06:59:40;7.93;;;5.78;;
42670;SDS011;28283;55.426;37.756;2022-12-18T07:04:41;7.90;;;5.93;;
42670;SDS011;28283;55.426;37.756;2022-12-18T07:09:41;7.93;;;5.70;;
42670;SDS011;28283;55.426;37.756;2022-12-18T07:14:42;8.68;;;5.60;;
42670;SDS011;28283;55.426;37.756;2022-12-18T07:19:43;6.47;;;5.63;;
42670;SDS011;28283;55.426;37.756;2022-12-18T07:24:44;8.13;;;5.78;;
42670;SDS011;28283;55.426;37.756;2022-12-18T07:29:45;5.75;;;4.03;;
42670;SDS011;28283;55.426;37.756;2022-12-18T07:34:45;9.30;;;6.18;;
42670;SDS011;28283;55.426;37.756;2022-12-18T07:39:46;8.77;;;6.25;;
42670;SDS011;28283;55.426;37.756;2022-12-18T07:44:47;6.82;;;5.18;;
42670;SDS011;28283;55.426;37.756;2022-12-18T07:49:48;8.00;;;5.95;;
42670;SDS011;28283;55.426;37.756;2022-12-18T07:54:48;10.43;;;5.40;;
42670;SDS011;28283;55.426;37.756;2022-12-18T07:59:50;9.35;;;6.32;;
42670;SDS011;28283;55.426;37.756;2022-12-18T08:04:50;8.88;;;5.22;;
42670;SDS011;28283;55.426;37.756;2022-12-18T08:09:51;7.88;;;5.82;;
42670;SDS011;28283;55.426;37.756;2022-12-18T08:14:52;8.77;;;6.28;;
42670;SDS011;28283;55.426;37.756;2022-12-18T08:19:53;8.52;;;5.45;;
42670;SDS011;28283;55.426;37.756;2022-12-18T08:24:54;8.90;;;6.60;;
42670;SDS011;28283;55.426;37.756;2022-12-18T08:29:55;8.32;;;5.80;;
42670;SDS011;28283;55.426;37.756;2022-12-18T08:34:56;6.20;;;4.95;;
42670;SDS011;28283;55.426;37.756;2022-12-18T08:39:57;8.00;;;6.70;;
42670;SDS011;28283;55.426;37.756;2022-12-18T08:44:58;9.25;;;6.35;;
42670;SDS011;28283;55.426;37.756;2022-12-18T08:49:59;7.38;;;5.93;;
42670;SDS011;28283;55.426;37.756;2022-12-18T08:55:00;9.93;;;6.38;;
42670;SDS011;28283;55.426;37.756;2022-12-18T09:05:01;10.13;;;6.53;;
42670;SDS011;28283;55.426;37.756;2022-12-18T09:15:03;7.00;;;4.15;;
42670;SDS011;28283;55.426;37.756;2022-12-18T09:20:04;7.47;;;6.07;;
42670;SDS011;28283;55.426;37.756;2022-12-18T09:25:05;7.45;;;5.32;;
42670;SDS011;28283;55.426;37.756;2022-12-18T09:30:08;10.23;;;6.10;;
42670;SDS011;28283;55.426;37.756;2022-12-18T09:35:09;6.32;;;5.03;;
42670;SDS011;28283;55.426;37.756;2022-12-18T09:40:14;9.90;;;6.18;;
42670;SDS011;28283;55.426;37.756;2022-12-18T09:45:16;9.63;;;5.88;;
42670;SDS011;28283;55.426;37.756;2022-12-18T09:50:32;10.00;;;5.82;;
42670;SDS011;28283;55.426;37.756;2022-12-18T09:55:37;7.15;;;4.93;;
42670;SDS011;28283;55.426;37.756;2022-12-18T10:00:42;7.10;;;5.63;;
42670;SDS011;28283;55.426;37.756;2022-12-18T10:17:11;8.75;;;6.60;;
42670;SDS011;28283;55.426;37.756;2022-12-18T10:27:38;6.38;;;4.78;;
42670;SDS011;28283;55.426;37.756;2022-12-18T10:32:39;6.93;;;5.47;;
42670;SDS011;28283;55.426;37.756;2022-12-18T10:43:11;8.65;;;4.05;;
42670;SDS011;28283;55.426;37.756;2022-12-18T10:48:19;4.03;;;2.08;;
42670;SDS011;28283;55.426;37.756;2022-12-18T10:53:22;5.70;;;4.28;;
42670;SDS011;28283;55.426;37.756;2022-12-18T10:58:29;5.88;;;4.68;;
42670;SDS011;28283;55.426;37.756;2022-12-18T11:03:43;8.15;;;4.50;;
42670;SDS011;28283;55.426;37.756;2022-12-18T11:08:56;6.45;;;5.35;;
42670;SDS011;28283;55.426;37.756;2022-12-18T11:14:05;5.95;;;5.10;;
42670;SDS011;28283;55.426;37.756;2022-12-18T11:19:28;3.15;;;2.58;;
42670;SDS011;28283;55.426;37.756;2022-12-18T11:39:41;3.83;;;2.88;;
42670;SDS011;28283;55.426;37.756;2022-12-18T11:50:52;7.50;;;5.18;;
42670;SDS011;28283;55.426;37.756;2022-12-18T12:06:36;5.20;;;3.72;;
42670;SDS011;28283;55.426;37.756;2022-12-18T12:12:31;8.60;;;4.43;;
42670;SDS011;28283;55.426;37.756;2022-12-18T12:38:25;4.47;;;3.17;;
42670;SDS011;28283;55.426;37.756;2022-12-18T12:43:42;6.85;;;4.55;;
42670;SDS011;28283;55.426;37.756;2022-12-18T12:53:53;10.32;;;5.95;;
42670;SDS011;28283;55.426;37.756;2022-12-18T12:58:59;8.30;;;4.78;;
42670;SDS011;28283;55.426;37.756;2022-12-18T13:09:33;6.57;;;2.67;;
42670;SDS011;28283;55.426;37.756;2022-12-18T13:19:37;7.20;;;3.88;;
42670;SDS011;28283;55.426;37.756;2022-12-18T13:24:38;8.45;;;6.13;;
42670;SDS011;28283;55.426;37.756;2022-12-18T13:29:44;9.40;;;5.55;;
42670;SDS011;28283;55.426;37.756;2022-12-18T13:34:45;6.57;;;3.78;;
42670;SDS011;28283;55.426;37.756;2022-12-18T13:39:46;6.28;;;3.90;;
42670;SDS011;28283;55.426;37.756;2022-12-18T13:44:52;7.50;;;4.65;;
42670;SDS011;28283;55.426;37.756;2022-12-18T13:49:53;8.50;;;4.85;;
42670;SDS011;28283;55.426;37.756;2022-12-18T13:54:56;5.60;;;3.85;;
42670;SDS011;28283;55.426;37.756;2022-12-18T14:05:22;2.72;;;1.60;;
42670;SDS011;28283;55.426;37.756;2022-12-18T14:10:31;7.43;;;4.38;;
42670;SDS011;28283;55.426;37.756;2022-12-18T14:15:34;4.00;;;3.28;;
42670;SDS011;28283;55.426;37.756;2022-12-18T14:20:39;6.32;;;4.00;;
42670;SDS011;28283;55.426;37.756;2022-12-18T14:25:45;7.03;;;4.57;;
42670;SDS011;28283;55.426;37.756;2022-12-18T14:30:47;7.78;;;4.00;;
42670;SDS011;28283;55.426;37.756;2022-12-18T14:35:56;11.57;;;6.95;;
42670;SDS011;28283;55.426;37.756;2022-12-18T14:51:28;12.25;;;5.45;;
42670;SDS011;28283;55.426;37.756;2022-12-18T14:56:31;14.25;;;7.28;;
42670;SDS011;28283;55.426;37.756;2022-12-18T15:01:38;15.45;;;8.02;;
42670;SDS011;28283;55.426;37.756;2022-12-18T15:12:19;10.65;;;6.65;;
42670;SDS011;28283;55.426;37.756;2022-12-18T15:17:26;17.33;;;8.48;;
42670;SDS011;28283;55.426;37.756;2022-12-18T15:22:30;14.80;;;7.47;;
42670;SDS011;28283;55.426;37.756;2022-12-18T15:27:35;13.73;;;6.72;;
42670;SDS011;28283;55.426;37.756;2022-12-18T15:32:38;8.73;;;5.40;;
42670;SDS011;28283;55.426;37.756;2022-12-18T15:37:41;6.10;;;4.28;;
42670;SDS011;28283;55.426;37.756;2022-12-18T15:42:43;8.18;;;5.10;;
42670;SDS011;28283;55.426;37.756;2022-12-18T15:48:09;8.98;;;4.63;;
42670;SDS011;28283;55.426;37.756;2022-12-18T15:53:23;8.25;;;6.30;;
42670;SDS011;28283;55.426;37.756;2022-12-18T15:58:26;8.90;;;4.80;;
42670;SDS011;28283;55.426;37.756;2022-12-18T16:03:27;9.75;;;4.30;;
42670;SDS011;28283;55.426;37.756;2022-12-18T16:08:28;6.90;;;3.40;;
42670;SDS011;28283;55.426;37.756;2022-12-18T16:13:29;9.30;;;5.10;;
42670;SDS011;28283;55.426;37.756;2022-12-18T16:18:30;5.05;;;3.08;;
42670;SDS011;28283;55.426;37.756;2022-12-18T16:23:31;4.03;;;3.05;;
42670;SDS011;28283;55.426;37.756;2022-12-18T16:28:31;3.88;;;2.58;;
42670;SDS011;28283;55.426;37.756;2022-12-18T16:33:32;7.05;;;2.90;;
42670;SDS011;28283;55.426;37.756;2022-12-18T16:38:33;6.38;;;3.92;;
42670;SDS011;28283;55.426;37.756;2022-12-18T16:43:33;5.25;;;3.33;;
42670;SDS011;28283;55.426;37.756;2022-12-18T16:48:35;4.30;;;2.08;;
42670;SDS011;28283;55.426;37.756;2022-12-18T16:53:35;4.45;;;3.38;;
42670;SDS011;28283;55.426;37.756;2022-12-18T16:58:36;4.93;;;3.95;;
42670;SDS011;28283;55.426;37.756;2022-12-18T17:03:37;8.75;;;5.15;;
42670;SDS011;28283;55.426;37.756;2022-12-18T17:08:37;5.90;;;2.40;;
42670;SDS011;28283;55.426;37.756;2022-12-18T17:13:38;14.60;;;3.33;;
42670;SDS011;28283;55.426;37.756;2022-12-18T17:18:38;5.88;;;3.92;;
42670;SDS011;28283;55.426;37.756;2022-12-18T17:23:40;6.97;;;5.07;;
42670;SDS011;28283;55.426;37.756;2022-12-18T17:28:42;7.13;;;4.20;;
42670;SDS011;28283;55.426;37.756;2022-12-18T17:33:43;5.25;;;4.00;;
42670;SDS011;28283;55.426;37.756;2022-12-18T17:38:53;3.92;;;3.58;;
42670;SDS011;28283;55.426;37.756;2022-12-18T17:43:56;8.90;;;3.88;;
42670;SDS011;28283;55.426;37.756;2022-12-18T17:48:59;4.75;;;3.05;;
42670;SDS011;28283;55.426;37.756;2022-12-18T17:54:00;5.65;;;4.30;;
42670;SDS011;28283;55.426;37.756;2022-12-18T17:59:01;5.65;;;3.80;;
42670;SDS011;28283;55.426;37.756;2022-12-18T18:04:02;5.90;;;3.85;;
42670;SDS011;28283;55.426;37.756;2022-12-18T18:09:03;6.07;;;3.25;;
42670;SDS011;28283;55.426;37.756;2022-12-18T18:14:06;7.43;;;4.60;;
42670;SDS011;28283;55.426;37.756;2022-12-18T18:19:13;3.90;;;3.55;;
42670;SDS011;28283;55.426;37.756;2022-12-18T18:24:19;7.75;;;3.60;;
42670;SDS011;28283;55.426;37.756;2022-12-18T18:29:23;9.32;;;4.85;;
42670;SDS011;28283;55.426;37.756;2022-12-18T18:34:26;8.32;;;5.63;;
42670;SDS011;28283;55.426;37.756;2022-12-18T18:39:28;6.82;;;5.00;;
42670;SDS011;28283;55.426;37.756;2022-12-18T18:44:29;10.10;;;6.30;;
42670;SDS011;28283;55.426;37.756;2022-12-18T18:49:30;7.03;;;4.97;;
42670;SDS011;28283;55.426;37.756;2022-12-18T18:54:31;6.93;;;4.45;;
42670;SDS011;28283;55.426;37.756;2022-12-18T18:59:32;10.02;;;5.97;;
42670;SDS011;28283;55.426;37.756;2022-12-18T19:04:32;9.23;;;5.25;;
42670;SDS011;28283;55.426;37.756;2022-12-18T19:09:33;10.18;;;5.53;;
42670;SDS011;28283;55.426;37.756;2022-12-18T19:14:35;9.88;;;3.97;;
42670;SDS011;28283;55.426;37.756;2022-12-18T19:19:36;8.40;;;4.30;;
42670;SDS011;28283;55.426;37.756;2022-12-18T19:24:36;6.63;;;3.42;;
42670;SDS011;28283;55.426;37.756;2022-12-18T19:29:37;8.80;;;5.10;;
42670;SDS011;28283;55.426;37.756;2022-12-18T19:34:38;12.80;;;6.03;;
42670;SDS011;28283;55.426;37.756;2022-12-18T19:39:39;8.85;;;5.50;;
42670;SDS011;28283;55.426;37.756;2022-12-18T19:44:39;10.23;;;5.45;;
42670;SDS011;28283;55.426;37.756;2022-12-18T19:49:40;10.80;;;6.43;;
42670;SDS011;28283;55.426;37.756;2022-12-18T19:54:44;11.02;;;5.78;;
42670;SDS011;28283;55.426;37.756;2022-12-18T19:59:46;11.73;;;6.70;;
42670;SDS011;28283;55.426;37.756;2022-12-18T20:04:47;10.00;;;6.72;;
42670;SDS011;28283;55.426;37.756;2022-12-18T20:09:48;14.82;;;7.38;;
42670;SDS011;28283;55.426;37.756;2022-12-18T20:14:49;10.50;;;6.35;;
42670;SDS011;28283;55.426;37.756;2022-12-18T20:19:50;14.25;;;7.28;;
42670;SDS011;28283;55.426;37.756;2022-12-18T20:24:51;16.02;;;7.93;;
42670;SDS011;28283;55.426;37.756;2022-12-18T20:29:51;15.55;;;7.43;;
42670;SDS011;28283;55.426;37.756;2022-12-18T20:34:52;12.05;;;7.20;;
42670;SDS011;28283;55.426;37.756;2022-12-18T20:39:53;17.13;;;8.75;;
42670;SDS011;28283;55.426;37.756;2022-12-18T20:44:54;14.60;;;7.80;;
42670;SDS011;28283;55.426;37.756;2022-12-18T20:49:54;16.33;;;7.70;;
42670;SDS011;28283;55.426;37.756;2022-12-18T20:54:55;9.88;;;6.15;;
42670;SDS011;28283;55.426;37.756;2022-12-18T20:59:57;12.32;;;6.10;;
42670;SDS011;28283;55.426;37.756;2022-12-18T21:04:58;16.58;;;8.63;;
42670;SDS011;28283;55.426;37.756;2022-12-18T21:09:58;16.10;;;7.35;;
42670;SDS011;28283;55.426;37.756;2022-12-18T21:15:00;15.25;;;8.57;;
42670;SDS011;28283;55.426;37.756;2022-12-18T21:20:01;13.70;;;6.65;;
42670;SDS011;28283;55.426;37.756;2022-12-18T21:25:02;13.18;;;6.25;;
42670;SDS011;28283;55.426;37.756;2022-12-18T21:30:03;12.43;;;6.97;;
42670;SDS011;28283;55.426;37.756;2022-12-18T21:35:04;15.88;;;7.82;;
42670;SDS011;28283;55.426;37.756;2022-12-18T21:40:05;15.82;;;6.38;;
42670;SDS011;28283;55.426;37.756;2022-12-18T21:45:07;24.55;;;10.70;;
42670;SDS011;28283;55.426;37.756;2022-12-18T21:50:08;16.10;;;8.32;;
42670;SDS011;28283;55.426;37.756;2022-12-18T21:55:08;22.67;;;7.57;;
42670;SDS011;28283;55.426;37.756;2022-12-18T22:00:10;17.38;;;8.07;;
42670;SDS011;28283;55.426;37.756;2022-12-18T22:05:12;9.70;;;5.72;;
42670;SDS011;28283;55.426;37.756;2022-12-18T22:10:13;15.95;;;7.90;;
42670;SDS011;28283;55.426;37.756;2022-12-18T22:15:13;16.65;;;8.48;;
42670;SDS011;28283;55.426;37.756;2022-12-18T22:20:14;13.35;;;7.07;;
42670;SDS011;28283;55.426;37.756;2022-12-18T22:25:15;17.00;;;8.40;;
42670;SDS011;28283;55.426;37.756;2022-12-18T22:30:16;12.68;;;7.65;;
42670;SDS011;28283;55.426;37.756;2022-12-18T22:35:16;9.95;;;5.38;;
42670;SDS011;28283;55.426;37.756;2022-12-18T22:40:17;11.75;;;6.70;;
42670;SDS011;28283;55.426;37.756;2022-12-18T22:45:20;11.15;;;6.95;;
42670;SDS011;28283;55.426;37.756;2022-12-18T22:50:20;10.13;;;5.32;;
42670;SDS011;28283;55.426;37.756;2022-12-18T22:55:21;6.07;;;4.43;;
42670;SDS011;28283;55.426;37.756;2022-12-18T23:00:22;10.63;;;5.38;;
42670;SDS011;28283;55.426;37.756;2022-12-18T23:05:22;10.48;;;4.80;;
42670;SDS011;28283;55.426;37.756;2022-12-18T23:10:23;9.77;;;5.70;;
42670;SDS011;28283;55.426;37.756;2022-12-18T23:15:24;17.98;;;7.13;;
42670;SDS011;28283;55.426;37.756;2022-12-18T23:20:25;11.60;;;5.10;;
42670;SDS011;28283;55.426;37.756;2022-12-18T23:25:26;7.72;;;4.88;;
42670;SDS011;28283;55.426;37.756;2022-12-18T23:30:27;11.75;;;5.78;;
42670;SDS011;28283;55.426;37.756;2022-12-18T23:35:28;9.05;;;5.55;;
42670;SDS011;28283;55.426;37.756;2022-12-18T23:40:29;7.07;;;4.00;;
42670;SDS011;28283;55.426;37.756;2022-12-18T23:45:30;10.75;;;6.18;;
42670;SDS011;28283;55.426;37.756;2022-12-18T23:50:35;7.45;;;4.90;;
42670;SDS011;28283;55.426;37.756;2022-12-18T23:55:37;3.90;;;2.08;;
